Lavernia, Texas
Current Conditions -  °F | °C
As of 8:58 PM on Tuesday 21 Oct 2014 (Local Time) from KRND Reporting Station
Clear Clear  
Wind Chill: 70°   Ceiling: Unl
Heat Index: 70°   Visibility: 10mi
Dew Point: 47°   Wind: 6mph
Humidity: 43%   Direction: 70°ENE
Pressure: 30.02"   Gusts: NA
Location:  29.356°N, 98.0927°W
Report Text: KRND 220158Z AUTO 07005KT 10SM CLR 21/08 A3002 RMK AO2 SLP161 T02120083
Loading
Personal Weather Stations






























Interactive Weather Map
Tropical Storm Tracking
New forecast layout! Learn more

10-Day Weather Forecast

Advertisements
Track Severe Weather on mobile